Time;durP1;ratioP1;P1;durP2;ratioP2;P2;SDS_P1;SDS_P2;PMS_P1;PMS_P2;Temp;Humidity;BMP_temperature;BMP_pressure;BME280_temperature;BME280_humidity;BME280_pressure;Samples;Min_cycle;Max_cycle;Signal;HPM_P1;HPM_P2
2021/04/09 00:02:27;;;;;;;82.57;43.75;;;128.30;1740.80;;;;;;5075368;28;20465;-69
2021/04/09 00:04:53;;;;;;;79.60;42.83;;;128.30;1715.20;;;;;;5074478;28;20483;-69
2021/04/09 00:07:19;;;;;;;76.00;42.05;;;128.30;1715.20;;;;;;5075244;28;20338;-67
2021/04/09 00:09:45;;;;;;;80.40;42.90;;;128.30;1715.20;;;;;;5075337;28;20377;-69
2021/04/09 00:12:12;;;;;;;73.30;41.65;;;128.20;1740.80;;;;;;5075552;28;20020;-69
2021/04/09 00:14:38;;;;;;;69.30;39.28;;;128.20;1766.40;;;;;;5074977;28;20496;-68
2021/04/09 00:17:05;;;;;;;65.55;37.35;;;128.20;1766.40;;;;;;5075436;28;20365;-69
2021/04/09 00:19:32;;;;;;;70.93;38.78;;;128.10;1766.40;;;;;;5075213;28;20457;-69
2021/04/09 00:21:58;;;;;;;70.05;39.22;;;128.00;1766.40;;;;;;5074967;28;20408;-66
2021/04/09 00:24:26;;;;;;;63.67;36.40;;;128.00;1766.40;;;;;;5075923;28;20425;-75
2021/04/09 00:26:53;;;;;;;66.43;37.35;;;128.10;1740.80;;;;;;5074885;28;20376;-69
2021/04/09 00:29:20;;;;;;;73.10;38.47;;;128.00;1740.80;;;;;;5075410;28;20387;-66
2021/04/09 00:31:47;;;;;;;68.53;37.70;;;128.10;1740.80;;;;;;5074846;28;20453;-70
2021/04/09 00:34:13;;;;;;;63.13;36.03;;;128.00;1740.80;;;;;;5057097;28;20376;-66
2021/04/09 00:36:39;;;;;;;63.55;34.38;;;128.10;1740.80;;;;;;5057202;28;20361;-68
2021/04/09 00:39:06;;;;;;;61.78;33.95;;;128.10;1740.80;;;;;;5074714;28;20031;-68
2021/04/09 00:41:35;;;;;;;65.82;34.53;;;128.30;1740.80;;;;;;5075011;28;20433;-69
2021/04/09 00:44:01;;;;;;;55.15;31.95;;;128.30;1740.80;;;;;;5074617;28;20373;-68
2021/04/09 00:46:27;;;;;;;56.05;28.77;;;128.30;1715.20;;;;;;5074576;28;20393;-65
2021/04/09 00:48:53;;;;;;;66.38;35.38;;;128.30;1715.20;;;;;;5074485;28;20042;-68
2021/04/09 00:51:21;;;;;;;62.92;31.70;;;128.30;1740.80;;;;;;5074808;28;20035;-64
2021/04/09 00:53:47;;;;;;;56.53;30.05;;;128.20;1740.80;;;;;;5074379;28;20353;-70
2021/04/09 00:56:18;;;;;;;56.28;31.58;;;128.20;1740.80;;;;;;5074468;28;20445;-68
2021/04/09 00:58:44;;;;;;;54.05;30.83;;;128.20;1740.80;;;;;;5074725;28;20364;-69
2021/04/09 01:01:11;;;;;;;50.17;27.75;;;128.00;1766.40;;;;;;5074239;28;20436;-69
2021/04/09 01:03:38;;;;;;;54.58;28.58;;;128.00;1740.80;;;;;;5074332;28;20354;-67
2021/04/09 01:06:05;;;;;;;52.70;28.63;;;128.00;1740.80;;;;;;5074169;28;20468;-69
2021/04/09 01:08:31;;;;;;;48.33;29.38;;;128.10;1740.80;;;;;;5074166;28;20397;-68
2021/04/09 01:10:58;;;;;;;55.10;29.40;;;128.10;1740.80;;;;;;5074170;28;20404;-69
2021/04/09 01:13:24;;;;;;;56.40;29.80;;;128.10;1766.40;;;;;;5074029;28;20377;-65
2021/04/09 01:15:51;;;;;;;52.78;30.20;;;128.00;1740.80;;;;;;5073972;28;20499;-68
2021/04/09 01:18:26;;;;;;;44.33;27.38;;;128.00;1766.40;;;;;;5073950;28;20540;-67
2021/04/09 01:21:12;;;;;;;51.22;27.60;;;128.00;1740.80;;;;;;5074598;28;20369;-69
2021/04/09 01:23:57;;;;;;;52.72;29.55;;;128.00;1740.80;;;;;;5074535;28;20361;-69
2021/04/09 01:26:58;;;;;;;52.67;30.65;;;103.30;1715.20;;;;;;5073949;28;20403;-65
2021/04/09 01:29:52;;;;;;;60.45;29.73;;;103.20;1740.80;;;;;;5073785;28;20433;-65
2021/04/09 01:32:19;;;;;;;54.70;27.52;;;103.30;1740.80;;;;;;5073883;28;20457;-69
2021/04/09 01:34:53;;;;;;;48.63;26.75;;;103.30;1740.80;;;;;;5074337;28;20350;-69
2021/04/09 01:37:30;;;;;;;46.58;25.80;;;103.30;1715.20;;;;;;5073753;28;20521;-68
2021/04/09 01:40:22;;;;;;;45.15;25.23;;;103.30;1715.20;;;;;;5074042;28;20349;-68
2021/04/09 01:42:54;;;;;;;45.08;24.70;;;103.30;1715.20;;;;;;5069629;28;20451;-70
2021/04/09 01:45:23;;;;;;;44.53;24.13;;;128.00;1740.80;;;;;;5074005;28;20017;-68
2021/04/09 01:47:52;;;;;;;45.17;26.50;;;128.00;1740.80;;;;;;5073452;28;20350;-68
2021/04/09 01:50:19;;;;;;;46.63;27.10;;;128.00;1740.80;;;;;;5073565;28;20362;-67
2021/04/09 01:52:48;;;;;;;51.55;29.92;;;103.30;1715.20;;;;;;5073477;28;20408;-70
2021/04/09 01:55:17;;;;;;;53.22;29.80;;;103.20;1715.20;;;;;;5073515;28;20480;-69
2021/04/09 01:57:44;;;;;;;55.92;28.33;;;103.10;1740.80;;;;;;5073452;28;20436;-69
2021/04/09 02:00:17;;;;;;;54.03;29.70;;;103.00;1740.80;;;;;;5055558;28;20342;-70
2021/04/09 02:02:45;;;;;;;46.30;26.65;;;103.00;1766.40;;;;;;5073499;28;20457;-66
2021/04/09 02:05:16;;;;;;;44.83;26.92;;;103.00;1766.40;;;;;;5073664;28;20361;-68
2021/04/09 02:07:44;;;;;;;56.95;31.08;;;103.00;1766.40;;;;;;5073250;28;20021;-69
2021/04/09 02:10:12;;;;;;;85.95;43.58;;;102.90;1766.40;;;;;;5073285;28;20496;-69
2021/04/09 02:12:42;;;;;;;111.80;55.35;;;102.90;1766.40;;;;;;5073262;28;20350;-68
2021/04/09 02:15:10;;;;;;;76.47;39.78;;;102.90;1766.40;;;;;;5073470;28;20423;-68
2021/04/09 02:17:37;;;;;;;76.82;39.35;;;102.90;1766.40;;;;;;5073305;28;20354;-69
2021/04/09 02:20:07;;;;;;;58.88;33.60;;;102.90;1766.40;;;;;;5073888;28;20480;-67
2021/04/09 02:22:34;;;;;;;58.75;32.03;;;102.90;1766.40;;;;;;5073255;28;20418;-69
2021/04/09 02:25:00;;;;;;;55.15;28.52;;;102.80;1792.00;;;;;;5073283;28;20374;-69
2021/04/09 02:27:26;;;;;;;52.92;29.05;;;102.80;1792.00;;;;;;5074410;28;20364;-69
2021/04/09 02:29:54;;;;;;;63.08;34.80;;;102.80;1792.00;;;;;;5077271;28;20399;-69
2021/04/09 02:32:23;;;;;;;64.55;36.67;;;102.80;1817.60;;;;;;5077111;28;20453;-68
2021/04/09 02:34:51;;;;;;;63.78;36.60;;;102.80;1817.60;;;;;;5077084;28;20368;-68
2021/04/09 02:37:19;;;;;;;68.47;37.15;;;102.80;1817.60;;;;;;5077709;28;20514;-68
2021/04/09 02:39:49;;;;;;;61.75;34.05;;;102.80;1817.60;;;;;;5077017;28;20520;-70
2021/04/09 02:42:16;;;;;;;55.67;32.17;;;102.80;1792.00;;;;;;5077036;28;20411;-63
2021/04/09 02:44:42;;;;;;;61.13;33.25;;;102.70;1792.00;;;;;;5077162;28;20360;-67
2021/04/09 02:47:26;;;;;;;53.85;30.95;;;102.60;1792.00;;;;;;5076875;28;20361;-63
2021/04/09 02:50:11;;;;;;;55.75;31.40;;;102.60;1792.00;;;;;;5076864;28;20546;-68
2021/04/09 02:52:44;;;;;;;50.08;28.17;;;102.60;1792.00;;;;;;5077430;28;20453;-64
2021/04/09 02:55:17;;;;;;;47.80;25.95;;;102.60;1817.60;;;;;;5077356;28;20475;-64
2021/04/09 02:57:46;;;;;;;47.30;25.90;;;102.60;1817.60;;;;;;5076730;28;20461;-70
2021/04/09 03:00:13;;;;;;;47.22;24.23;;;102.40;1843.20;;;;;;5058826;28;20744;-69
2021/04/09 03:02:42;;;;;;;65.78;36.08;;;102.50;1817.60;;;;;;5076529;28;20381;-70
2021/04/09 03:05:09;;;;;;;53.72;30.65;;;102.50;1817.60;;;;;;5076574;28;20399;-65
2021/04/09 03:07:39;;;;;;;51.13;27.08;;;102.50;1817.60;;;;;;5076386;28;20434;-63
2021/04/09 03:10:10;;;;;;;61.97;30.48;;;102.50;1843.20;;;;;;5076408;28;20445;-65
2021/04/09 03:12:37;;;;;;;57.70;30.30;;;102.50;1843.20;;;;;;5076340;28;20027;-68
2021/04/09 03:15:05;;;;;;;58.78;31.02;;;102.50;1843.20;;;;;;5076665;28;20541;-66
2021/04/09 03:17:37;;;;;;;56.97;30.73;;;102.50;1843.20;;;;;;5076630;28;20402;-68
2021/04/09 03:20:08;;;;;;;53.38;29.23;;;102.40;1817.60;;;;;;5076304;28;20377;-69
2021/04/09 03:22:34;;;;;;;51.63;27.65;;;102.40;1843.20;;;;;;5076800;28;20456;-69
2021/04/09 03:25:00;;;;;;;56.13;29.38;;;102.40;1843.20;;;;;;5076487;28;20418;-68
2021/04/09 03:27:26;;;;;;;54.25;30.77;;;102.40;1843.20;;;;;;5076030;28;20369;-68
2021/04/09 03:29:52;;;;;;;55.75;28.58;;;102.40;1817.60;;;;;;5076080;28;20377;-69
2021/04/09 03:32:18;;;;;;;67.18;27.90;;;102.40;1843.20;;;;;;5076659;28;20406;-66
2021/04/09 03:34:44;;;;;;;62.40;29.08;;;77.70;1843.20;;;;;;5058150;28;20437;-69
2021/04/09 03:37:11;;;;;;;53.22;29.70;;;77.70;1843.20;;;;;;5075996;28;20392;-68
2021/04/09 03:39:37;;;;;;;54.20;29.00;;;77.60;1843.20;;;;;;5074575;28;20360;-69
2021/04/09 03:42:04;;;;;;;54.90;28.15;;;77.60;1843.20;;;;;;5076127;28;20023;-69
2021/04/09 03:44:30;;;;;;;60.30;32.10;;;77.60;1843.20;;;;;;5075869;28;20411;-68
2021/04/09 03:46:56;;;;;;;55.47;29.03;;;77.60;1868.80;;;;;;5076687;28;20432;-69
2021/04/09 03:49:22;;;;;;;56.47;30.57;;;77.60;1843.20;;;;;;5076270;28;20052;-69
2021/04/09 03:51:49;;;;;;;53.30;29.13;;;77.50;1868.80;;;;;;5075637;28;20364;-67
2021/04/09 03:54:16;;;;;;;53.70;28.80;;;77.40;1868.80;;;;;;5075915;28;20353;-69
2021/04/09 03:56:42;;;;;;;50.85;29.35;;;77.40;1868.80;;;;;;5057602;28;20357;-68
2021/04/09 03:59:08;;;;;;;59.57;29.27;;;77.40;1868.80;;;;;;5075435;28;20531;-66
2021/04/09 04:01:34;;;;;;;56.93;26.87;;;77.40;1868.80;;;;;;5076087;28;20021;-70
2021/04/09 04:04:01;;;;;;;52.83;30.98;;;77.40;1843.20;;;;;;5075514;28;20358;-69
2021/04/09 04:06:27;;;;;;;57.75;28.30;;;77.40;1868.80;;;;;;5075414;28;20361;-69
2021/04/09 04:08:53;;;;;;;67.23;30.73;;;77.40;1868.80;;;;;;5075753;28;20462;-69
2021/04/09 04:11:19;;;;;;;55.87;29.93;;;77.40;1868.80;;;;;;5075596;28;20338;-69
2021/04/09 04:13:45;;;;;;;60.55;31.10;;;77.40;1868.80;;;;;;5075546;28;20488;-70
2021/04/09 04:16:11;;;;;;;63.23;32.57;;;77.30;1868.80;;;;;;5075139;28;20544;-69
2021/04/09 04:18:37;;;;;;;55.37;31.20;;;77.30;1894.40;;;;;;5075250;28;20522;-70
2021/04/09 04:21:04;;;;;;;55.80;29.20;;;77.30;1868.80;;;;;;5075160;28;20364;-69
2021/04/09 04:23:30;;;;;;;57.67;30.80;;;77.30;1868.80;;;;;;5075089;28;20638;-69
2021/04/09 04:25:56;;;;;;;66.13;34.20;;;77.30;1868.80;;;;;;5075369;28;20334;-69
2021/04/09 04:28:27;;;;;;;71.67;35.13;;;77.30;1894.40;;;;;;5075220;28;20020;-68
2021/04/09 04:30:55;;;;;;;67.50;32.10;;;77.30;1894.40;;;;;;5075532;28;20364;-69
2021/04/09 04:33:21;;;;;;;78.13;36.53;;;77.30;1868.80;;;;;;5075169;28;20356;-68
2021/04/09 04:35:49;;;;;;;82.77;42.27;;;77.30;1894.40;;;;;;5074794;28;20465;-68
2021/04/09 04:38:16;;;;;;;96.57;44.87;;;77.30;1894.40;;;;;;5074818;28;20411;-69
2021/04/09 04:40:43;;;;;;;97.33;45.67;;;77.30;1894.40;;;;;;5074773;28;20330;-69
2021/04/09 04:43:10;;;;;;;102.43;46.63;;;77.30;1894.40;;;;;;5074768;28;20453;-69
2021/04/09 04:45:36;;;;;;;90.07;41.40;;;77.30;1894.40;;;;;;5056674;28;20350;-69
2021/04/09 04:48:03;;;;;;;86.03;41.67;;;77.30;1894.40;;;;;;5074464;28;20401;-69
2021/04/09 04:50:29;;;;;;;93.83;44.97;;;77.30;1894.40;;;;;;5056811;28;20399;-68
2021/04/09 04:52:55;;;;;;;104.93;50.23;;;77.40;1868.80;;;;;;5074451;28;20469;-69
2021/04/09 04:55:21;;;;;;;103.97;50.73;;;77.40;1894.40;;;;;;5074505;28;20012;-69
2021/04/09 04:57:47;;;;;;;106.27;51.20;;;77.50;1894.40;;;;;;5074741;28;20024;-70
2021/04/09 05:00:14;;;;;;;124.70;56.60;;;77.60;1868.80;;;;;;5074393;28;20099;-70
2021/04/09 05:02:40;;;;;;;125.97;57.30;;;77.60;1868.80;;;;;;5074364;28;20374;-70
2021/04/09 05:05:07;;;;;;;109.93;48.97;;;77.70;1868.80;;;;;;5074232;28;20461;-69
2021/04/09 05:07:33;;;;;;;121.17;54.10;;;102.40;1843.20;;;;;;5074104;28;20456;-69
2021/04/09 05:09:59;;;;;;;124.27;55.60;;;102.40;1817.60;;;;;;5074113;28;20082;-69
2021/04/09 05:12:25;;;;;;;122.28;61.72;;;102.50;1843.20;;;;;;5074392;28;20468;-69
2021/04/09 05:14:52;;;;;;;117.13;56.97;;;102.50;1868.80;;;;;;5073910;28;20388;-69
2021/04/09 05:17:19;;;;;;;116.30;58.23;;;102.60;1843.20;;;;;;5074042;28;20364;-65
2021/04/09 05:19:45;;;;;;;125.75;58.83;;;102.60;1843.20;;;;;;5073916;28;20342;-69
2021/04/09 05:22:11;;;;;;;124.05;61.63;;;102.60;1843.20;;;;;;5073874;28;20365;-69
2021/04/09 05:24:37;;;;;;;128.30;57.97;;;102.70;1843.20;;;;;;5073792;28;20016;-69
2021/04/09 05:27:03;;;;;;;116.70;57.77;;;102.80;1817.60;;;;;;5073840;28;20373;-69
2021/04/09 05:29:30;;;;;;;127.80;62.47;;;102.80;1817.60;;;;;;5073742;28;20399;-68
2021/04/09 05:31:56;;;;;;;129.00;65.82;;;102.90;1817.60;;;;;;5073769;28;20350;-69
2021/04/09 05:34:22;;;;;;;132.60;68.90;;;103.10;1843.20;;;;;;5074352;28;20322;-70
2021/04/09 05:36:49;;;;;;;130.80;69.10;;;103.10;1817.60;;;;;;5073685;28;20365;-68
2021/04/09 05:39:15;;;;;;;137.00;71.80;;;103.20;1792.00;;;;;;5074059;28;20365;-69
2021/04/09 05:41:40;;;;;;;132.55;68.85;;;128.00;1817.60;;;;;;5073718;28;20408;-68
2021/04/09 05:44:07;;;;;;;127.53;74.72;;;128.10;1817.60;;;;;;5073687;28;20082;-69
2021/04/09 05:46:33;;;;;;;157.27;90.60;;;128.20;1817.60;;;;;;5073604;28;20373;-69
2021/04/09 05:48:59;;;;;;;194.02;108.97;;;128.30;1792.00;;;;;;5073491;28;20452;-68
2021/04/09 05:51:25;;;;;;;218.57;124.07;;;128.50;1792.00;;;;;;5073588;28;20091;-69
2021/04/09 05:53:52;;;;;;;237.85;142.43;;;128.70;1792.00;;;;;;5073494;28;20473;-69
2021/04/09 05:56:18;;;;;;;228.00;130.40;;;153.60;1740.80;;;;;;5073508;28;20393;-66
2021/04/09 05:58:44;;;;;;;222.43;127.70;;;153.90;1689.60;;;;;;5073414;28;20029;-66
2021/04/09 06:01:10;;;;;;;208.65;115.38;;;154.20;1664.00;;;;;;5073815;28;20019;-67
2021/04/09 06:03:36;;;;;;;200.45;111.43;;;154.30;1664.00;;;;;;5072945;28;20416;-69
2021/04/09 06:06:02;;;;;;;180.23;94.25;;;179.20;1638.40;;;;;;5073253;28;20365;-69
2021/04/09 06:08:28;;;;;;;175.57;83.18;;;179.60;1612.80;;;;;;5073277;28;20032;-68
2021/04/09 06:14:19;;;;;;;108.03;50.53;;;179.80;1561.60;;;;;;5073038;28;20043;-69
2021/04/09 06:16:45;;;;;;;98.28;44.25;;;179.90;1536.00;;;;;;5073430;28;20032;-65
2021/04/09 06:19:12;;;;;;;87.32;40.33;;;180.00;1536.00;;;;;;5072924;28;20338;-68
2021/04/09 06:21:38;;;;;;;44.40;23.15;;;180.00;1536.00;;;;;;5073418;28;20364;-71
2021/04/09 06:24:06;;;;;;;53.63;25.35;;;180.10;1510.40;;;;;;5073193;28;20020;-69
2021/04/09 06:26:33;;;;;;;36.47;19.10;;;204.80;1536.00;;;;;;5073213;28;20479;-69
2021/04/09 06:28:59;;;;;;;28.23;17.60;;;204.90;1510.40;;;;;;5073078;28;20396;-69
2021/04/09 06:31:25;;;;;;;46.35;24.83;;;205.30;1484.80;;;;;;5072815;28;20473;-69
2021/04/09 06:33:51;;;;;;;29.65;16.05;;;307.60;1254.40;;;;;;5073025;28;20029;-70
2021/04/09 06:36:17;;;;;;;36.20;18.50;;;409.80;947.20;;;;;;5073394;28;20499;-69
2021/04/09 06:38:43;;;;;;;38.22;22.00;;;486.40;768.00;;;;;;5072959;28;20056;-69
2021/04/09 06:41:10;;;;;;;36.65;23.35;;;538.10;691.20;;;;;;5072990;28;20082;-65
2021/04/09 06:43:37;;;;;;;35.60;20.95;;;589.40;640.00;;;;;;5072915;28;20385;-69
2021/04/09 06:46:05;;;;;;;37.38;23.02;;;640.10;563.20;;;;;;5072910;28;20376;-68
2021/04/09 06:48:31;;;;;;;19.77;10.75;;;666.00;537.60;;;;;;5073080;28;20388;-69
2021/04/09 06:50:59;;;;;;;18.80;13.20;;;691.30;537.60;;;;;;5072819;28;20392;-69
2021/04/09 06:53:25;;;;;;;23.90;14.00;;;716.80;486.40;;;;;;5073421;28;20410;-68
2021/04/09 06:55:52;;;;;;;26.80;17.60;;;691.20;486.40;;;;;;5073084;28;20395;-65
2021/04/09 06:58:20;;;;;;;32.15;18.33;;;589.70;588.80;;;;;;5072799;28;20024;-68
2021/04/09 07:00:51;;;;;;;29.33;17.38;;;538.10;665.60;;;;;;5072731;28;20365;-69
2021/04/09 07:03:17;;;;;;;26.65;14.43;;;487.10;665.60;;;;;;5073412;28;20421;-68
2021/04/09 07:05:44;;;;;;;23.27;14.07;;;461.00;716.80;;;;;;5072829;28;20369;-69
2021/04/09 07:08:10;;;;;;;17.85;10.02;;;435.70;768.00;;;;;;5072718;28;20411;-69
2021/04/09 07:10:36;;;;;;;19.80;9.23;;;410.40;793.60;;;;;;5072826;28;20364;-69
2021/04/09 07:13:04;;;;;;;11.73;7.32;;;409.90;844.80;;;;;;5073145;28;20370;-70
2021/04/09 07:15:41;;;;;;;9.38;5.70;;;384.90;844.80;;;;;;5076152;28;20040;-68
2021/04/09 07:18:09;;;;;;;11.48;5.78;;;384.20;870.40;;;;;;5076290;28;20421;-73
2021/04/09 07:20:37;;;;;;;9.77;5.35;;;359.20;896.00;;;;;;5076276;28;20373;-71
2021/04/09 07:23:05;;;;;;;14.07;7.18;;;359.20;921.60;;;;;;5058211;28;20339;-69
2021/04/09 07:25:37;;;;;;;23.35;9.23;;;359.00;896.00;;;;;;5076041;28;20412;-68
2021/04/09 07:28:25;;;;;;;14.57;8.55;;;358.70;947.20;;;;;;5075897;28;20457;-69
2021/04/09 07:30:56;;;;;;;21.70;9.00;;;358.80;947.20;;;;;;5076087;28;20020;-69
2021/04/09 07:33:27;;;;;;;19.73;9.90;;;358.60;947.20;;;;;;5075919;28;20354;-69
2021/04/09 07:35:58;;;;;;;32.55;13.90;;;358.50;972.80;;;;;;5075936;28;20400;-68
2021/04/09 07:38:33;;;;;;;28.60;15.93;;;358.40;947.20;;;;;;5076266;28;20449;-70
2021/04/09 07:41:04;;;;;;;15.80;9.45;;;333.60;998.40;;;;;;5075974;28;20357;-69
2021/04/09 07:43:33;;;;;;;15.52;8.23;;;333.70;972.80;;;;;;5075989;28;20403;-69
2021/04/09 07:46:02;;;;;;;16.13;7.07;;;358.40;947.20;;;;;;5075902;28;20370;-69
2021/04/09 07:48:31;;;;;;;15.02;7.22;;;358.60;947.20;;;;;;5075644;28;20024;-68
2021/04/09 07:50:58;;;;;;;11.15;5.85;;;358.40;972.80;;;;;;5075648;28;20381;-70
2021/04/09 07:53:30;;;;;;;11.75;6.18;;;358.50;921.60;;;;;;5057935;28;20419;-70
2021/04/09 07:56:17;;;;;;;7.55;4.70;;;358.60;947.20;;;;;;5075612;28;20385;-70
2021/04/09 07:58:44;;;;;;;11.15;4.07;;;333.60;947.20;;;;;;5075451;28;20020;-69
2021/04/09 08:01:22;;;;;;;9.05;5.45;;;333.70;947.20;;;;;;5075738;28;20353;-65
2021/04/09 08:03:49;;;;;;;15.52;9.07;;;333.60;921.60;;;;;;5075129;28;20376;-68
2021/04/09 08:06:34;;;;;;;11.32;5.53;;;333.60;921.60;;;;;;5075313;28;20381;-68
2021/04/09 08:09:00;;;;;;;6.88;4.75;;;333.60;921.60;;;;;;5075338;28;20372;-68
2021/04/09 08:11:32;;;;;;;10.25;6.28;;;333.50;896.00;;;;;;5075358;28;20372;-70
2021/04/09 08:14:02;;;;;;;9.35;5.57;;;333.60;921.60;;;;;;5075338;28;20483;-67
2021/04/09 08:16:30;;;;;;;7.22;4.82;;;333.60;896.00;;;;;;5075085;28;20488;-68
2021/04/09 08:19:10;;;;;;;6.78;4.00;;;333.50;921.60;;;;;;5075053;28;20427;-64
2021/04/09 08:21:40;;;;;;;8.95;4.93;;;333.70;921.60;;;;;;5075108;28;20012;-63
2021/04/09 08:24:08;;;;;;;20.92;8.82;;;333.60;921.60;;;;;;5074965;28;20407;-66
2021/04/09 08:26:36;;;;;;;9.43;5.32;;;333.70;947.20;;;;;;5074438;28;20360;-67
2021/04/09 08:29:04;;;;;;;10.63;4.57;;;333.60;921.60;;;;;;5074911;28;20378;-67
2021/04/09 08:31:31;;;;;;;8.68;5.15;;;333.60;947.20;;;;;;5075264;28;20453;-69
2021/04/09 08:33:58;;;;;;;6.45;3.85;;;333.60;921.60;;;;;;5074756;28;20453;-68
2021/04/09 08:36:26;;;;;;;11.00;6.05;;;333.50;921.60;;;;;;5075179;28;20377;-68
2021/04/09 08:38:54;;;;;;;10.68;4.90;;;333.60;896.00;;;;;;5074855;28;20528;-69
2021/04/09 08:41:20;;;;;;;6.80;3.50;;;333.50;896.00;;;;;;5074540;28;20392;-69
2021/04/09 08:43:48;;;;;;;5.45;3.45;;;333.50;896.00;;;;;;5074601;28;20495;-68
2021/04/09 08:46:15;;;;;;;7.55;3.90;;;333.50;896.00;;;;;;5074620;28;20362;-72
2021/04/09 08:48:47;;;;;;;7.88;4.10;;;333.40;896.00;;;;;;5074467;28;20368;-72
2021/04/09 08:51:14;;;;;;;6.07;3.90;;;333.50;921.60;;;;;;5074657;28;20350;-68
2021/04/09 08:53:40;;;;;;;5.88;3.60;;;333.50;921.60;;;;;;5074457;28;20484;-68
2021/04/09 08:56:10;;;;;;;6.97;4.13;;;333.50;870.40;;;;;;5074328;28;20368;-69
2021/04/09 08:58:47;;;;;;;7.78;3.38;;;333.40;870.40;;;;;;5074091;28;20373;-67
2021/04/09 09:01:14;;;;;;;6.05;3.05;;;333.40;870.40;;;;;;5074213;28;20342;-71
2021/04/09 09:03:41;;;;;;;7.55;3.35;;;333.50;921.60;;;;;;5074296;28;20387;-72
2021/04/09 09:06:09;;;;;;;5.45;3.03;;;333.60;870.40;;;;;;5074141;28;20350;-71
2021/04/09 09:08:44;;;;;;;8.48;3.85;;;333.60;870.40;;;;;;5074112;28;20396;-72
2021/04/09 09:11:12;;;;;;;6.20;3.40;;;333.70;921.60;;;;;;5074452;28;20374;-72
2021/04/09 09:13:45;;;;;;;10.00;5.47;;;333.50;870.40;;;;;;5074003;28;20376;-72
2021/04/09 09:16:20;;;;;;;8.82;3.85;;;333.60;921.60;;;;;;5073816;28;20443;-70
2021/04/09 09:18:52;;;;;;;7.97;4.40;;;333.60;921.60;;;;;;5074026;28;20373;-69
2021/04/09 09:21:25;;;;;;;5.97;3.80;;;333.50;870.40;;;;;;5074225;28;20461;-70
2021/04/09 09:23:56;;;;;;;8.35;4.07;;;333.60;870.40;;;;;;5074238;28;20418;-69
2021/04/09 09:26:42;;;;;;;8.27;4.60;;;333.60;896.00;;;;;;5074215;28;20484;-70
2021/04/09 09:29:23;;;;;;;9.50;4.22;;;333.70;896.00;;;;;;5073677;28;20119;-70
2021/04/09 09:31:49;;;;;;;6.60;3.88;;;333.70;844.80;;;;;;5074323;28;20445;-72
2021/04/09 09:34:21;;;;;;;7.50;4.10;;;333.70;844.80;;;;;;5073707;28;20390;-70
2021/04/09 09:37:12;;;;;;;9.80;4.60;;;358.40;844.80;;;;;;5074176;28;20020;-69
2021/04/09 09:39:42;;;;;;;7.78;4.20;;;358.50;896.00;;;;;;5073740;28;20408;-70
2021/04/09 09:42:20;;;;;;;9.93;4.13;;;358.60;844.80;;;;;;5073613;28;20543;-71
2021/04/09 09:44:50;;;;;;;8.85;4.28;;;358.60;896.00;;;;;;5073264;28;20447;-71
2021/04/09 09:47:16;;;;;;;7.32;3.65;;;358.60;844.80;;;;;;5073879;28;20373;-70
2021/04/09 09:50:04;;;;;;;10.95;4.70;;;358.80;844.80;;;;;;5073300;28;20103;-68
2021/04/09 09:52:56;;;;;;;7.00;4.30;;;358.80;844.80;;;;;;5073361;28;20376;-70
2021/04/09 09:55:37;;;;;;;8.77;4.32;;;358.80;819.20;;;;;;5073505;28;20415;-70
2021/04/09 09:58:16;;;;;;;8.70;4.53;;;358.80;819.20;;;;;;5074001;28;20032;-70
2021/04/09 10:00:54;;;;;;;10.82;5.13;;;358.90;819.20;;;;;;5073245;28;20472;-70
2021/04/09 10:03:42;;;;;;;7.90;4.40;;;358.90;844.80;;;;;;5073437;28;20473;-70
2021/04/09 10:06:12;;;;;;;9.55;4.05;;;358.90;819.20;;;;;;5072999;28;20390;-70
2021/04/09 10:08:40;;;;;;;7.72;4.18;;;358.90;819.20;;;;;;5073218;28;20369;-71
2021/04/09 10:11:15;;;;;;;9.88;5.28;;;359.10;793.60;;;;;;5073173;28;20111;-71
2021/04/09 10:13:43;;;;;;;10.52;6.00;;;359.10;819.20;;;;;;5055570;28;20365;-71
2021/04/09 10:16:20;;;;;;;9.90;4.60;;;359.20;819.20;;;;;;5073175;28;20427;-67
2021/04/09 10:18:53;;;;;;;12.55;5.00;;;359.20;793.60;;;;;;5055379;28;20462;-71
2021/04/09 10:21:23;;;;;;;;;;;359.30;793.60;;;;;;5073588;28;20441;-68
2021/04/09 10:23:52;;;;;;;8.38;4.18;;;384.00;768.00;;;;;;5073142;28;20310;-70
2021/04/09 10:26:24;;;;;;;9.75;5.35;;;384.00;819.20;;;;;;5073078;28;20437;-71
2021/04/09 10:28:50;;;;;;;7.85;4.45;;;384.00;819.20;;;;;;5073347;28;20357;-65
2021/04/09 10:31:19;;;;;;;13.23;5.97;;;359.30;768.00;;;;;;5073159;28;20401;-70
2021/04/09 10:33:50;;;;;;;10.43;5.78;;;359.30;793.60;;;;;;5073061;28;20476;-70
2021/04/09 10:36:22;;;;;;;9.02;5.25;;;384.00;793.60;;;;;;5073642;28;20384;-71
2021/04/09 10:38:51;;;;;;;13.00;6.38;;;384.10;819.20;;;;;;5072992;28;20491;-67
2021/04/09 10:41:34;;;;;;;11.13;5.65;;;384.10;844.80;;;;;;5072981;28;20427;-68
2021/04/09 10:44:01;;;;;;;11.68;6.53;;;384.20;793.60;;;;;;5073016;28;20048;-70
2021/04/09 10:46:30;;;;;;;7.25;4.60;;;384.10;768.00;;;;;;5072808;28;20350;-70
2021/04/09 10:49:01;;;;;;;12.38;6.00;;;384.20;768.00;;;;;;5074792;28;20412;-70
2021/04/09 10:51:29;;;;;;;12.25;6.10;;;384.30;819.20;;;;;;5076820;28;20551;-71
2021/04/09 10:53:56;;;;;;;13.48;5.93;;;384.40;768.00;;;;;;5076570;28;20457;-71
2021/04/09 10:56:23;;;;;;;9.98;4.88;;;384.30;768.00;;;;;;5058959;28;20350;-70
2021/04/09 10:58:50;;;;;;;11.68;5.13;;;384.40;742.40;;;;;;5076654;28;20025;-71
2021/04/09 11:01:16;;;;;;;9.57;5.93;;;384.40;793.60;;;;;;5076509;28;20369;-71
2021/04/09 11:03:43;;;;;;;7.18;4.63;;;384.50;793.60;;;;;;5076833;28;20457;-71
2021/04/09 11:06:10;;;;;;;7.68;4.75;;;384.50;742.40;;;;;;5076419;28;20395;-67
2021/04/09 11:08:39;;;;;;;6.25;4.10;;;384.40;768.00;;;;;;5076286;28;20497;-72
2021/04/09 11:11:15;;;;;;;5.95;4.30;;;384.50;742.40;;;;;;5076411;28;20462;-71
2021/04/09 11:13:43;;;;;;;9.38;6.13;;;384.70;742.40;;;;;;5076150;28;20342;-70
2021/04/09 11:16:12;;;;;;;7.47;4.30;;;384.70;793.60;;;;;;5075961;28;20384;-71
2021/04/09 11:18:56;;;;;;;13.30;4.75;;;384.80;793.60;;;;;;5075997;28;20372;-71
2021/04/09 11:21:54;;;;;;;6.10;4.13;;;384.70;716.80;;;;;;5076363;28;20369;-72
2021/04/09 11:24:30;;;;;;;9.73;5.00;;;384.90;716.80;;;;;;5074973;28;20473;-70
2021/04/09 11:26:57;;;;;;;6.03;4.10;;;409.60;716.80;;;;;;5076125;28;20357;-68
2021/04/09 11:29:32;;;;;;;11.70;5.85;;;409.70;768.00;;;;;;5075926;28;20032;-69
2021/04/09 11:32:13;;;;;;;14.13;7.25;;;409.70;716.80;;;;;;5076264;28;20522;-72
2021/04/09 11:34:41;;;;;;;8.57;3.70;;;409.70;768.00;;;;;;5075910;28;20372;-68
2021/04/09 11:37:09;;;;;;;8.23;5.00;;;409.90;768.00;;;;;;5075804;28;20028;-69
2021/04/09 11:39:46;;;;;;;13.32;5.78;;;410.00;742.40;;;;;;5076077;28;20399;-70
2021/04/09 11:42:12;;;;;;;8.18;4.10;;;410.10;742.40;;;;;;5075831;28;20338;-70
2021/04/09 11:44:39;;;;;;;5.95;4.18;;;410.10;716.80;;;;;;5075861;28;20360;-66
2021/04/09 11:47:34;;;;;;;7.38;3.83;;;410.10;742.40;;;;;;5075738;28;20508;-71
2021/04/09 11:50:01;;;;;;;9.40;3.72;;;410.20;716.80;;;;;;5075735;28;20368;-70
2021/04/09 11:52:28;;;;;;;10.75;4.60;;;410.20;742.40;;;;;;5076159;28;20021;-69
2021/04/09 11:54:54;;;;;;;7.57;4.30;;;410.20;716.80;;;;;;5075935;28;20372;-81
2021/04/09 11:57:29;;;;;;;9.63;4.85;;;410.40;691.20;;;;;;5075724;28;20096;-71
2021/04/09 11:59:55;;;;;;;6.60;4.07;;;410.30;716.80;;;;;;5074777;28;20391;-72
2021/04/09 12:02:26;;;;;;;7.25;4.90;;;410.40;716.80;;;;;;5075645;28;20360;-69
2021/04/09 12:04:53;;;;;;;11.13;3.80;;;410.40;716.80;;;;;;5075676;28;20406;-72
2021/04/09 12:07:27;;;;;;;7.47;4.63;;;410.50;716.80;;;;;;5075759;28;20338;-72
2021/04/09 12:09:57;;;;;;;9.55;3.58;;;410.50;691.20;;;;;;5075267;28;20380;-71
2021/04/09 12:12:26;;;;;;;11.63;5.00;;;410.50;716.80;;;;;;5075399;28;20013;-72
2021/04/09 12:14:56;;;;;;;7.82;4.38;;;410.40;691.20;;;;;;5074714;28;20450;-72
2021/04/09 12:17:26;;;;;;;8.18;4.00;;;410.50;716.80;;;;;;5075306;28;20377;-71
2021/04/09 12:19:58;;;;;;;7.82;5.90;;;410.50;716.80;;;;;;5075025;28;20365;-72
2021/04/09 12:22:25;;;;;;;10.43;4.20;;;410.40;665.60;;;;;;5075280;28;20368;-72
2021/04/09 12:24:54;;;;;;;13.30;6.80;;;410.40;665.60;;;;;;5074945;28;20357;-72